sensor_id;sensor_type;location;lat;lon;timestamp;pressure;altitude;pressure_sealevel;temperature;humidity
59531;BME280;45349;48.692;8.186;2023-04-19T00:02:07;99164.75;;;8.30;100.00
59531;BME280;45349;48.692;8.186;2023-04-19T00:04:34;99171.13;;;8.25;100.00
59531;BME280;45349;48.692;8.186;2023-04-19T00:07:03;99174.22;;;8.19;100.00
59531;BME280;45349;48.692;8.186;2023-04-19T00:09:30;99168.81;;;8.11;100.00
59531;BME280;45349;48.692;8.186;2023-04-19T00:11:57;99168.47;;;8.04;100.00
59531;BME280;45349;48.692;8.186;2023-04-19T00:14:23;99169.91;;;7.97;100.00
59531;BME280;45349;48.692;8.186;2023-04-19T00:16:50;99165.66;;;7.96;100.00
59531;BME280;45349;48.692;8.186;2023-04-19T00:19:16;99167.53;;;7.94;100.00
59531;BME280;45349;48.692;8.186;2023-04-19T00:21:43;99164.97;;;7.82;100.00
59531;BME280;45349;48.692;8.186;2023-04-19T00:24:11;99154.81;;;7.79;100.00
59531;BME280;45349;48.692;8.186;2023-04-19T00:26:37;99149.75;;;7.66;100.00
59531;BME280;45349;48.692;8.186;2023-04-19T00:29:05;99148.91;;;7.66;100.00
59531;BME280;45349;48.692;8.186;2023-04-19T00:31:32;99152.69;;;7.62;100.00
59531;BME280;45349;48.692;8.186;2023-04-19T00:33:58;99156.13;;;7.74;100.00
59531;BME280;45349;48.692;8.186;2023-04-19T00:36:25;99153.88;;;7.69;100.00
59531;BME280;45349;48.692;8.186;2023-04-19T00:38:52;99161.56;;;7.71;100.00
59531;BME280;45349;48.692;8.186;2023-04-19T00:41:20;99150.31;;;7.70;100.00
59531;BME280;45349;48.692;8.186;2023-04-19T00:43:46;99145.84;;;7.72;100.00
59531;BME280;45349;48.692;8.186;2023-04-19T00:46:13;99152.34;;;7.78;100.00
59531;BME280;45349;48.692;8.186;2023-04-19T00:48:40;99159.41;;;7.87;100.00
59531;BME280;45349;48.692;8.186;2023-04-19T00:51:07;99153.13;;;8.01;100.00
59531;BME280;45349;48.692;8.186;2023-04-19T00:53:35;99159.56;;;8.18;100.00
59531;BME280;45349;48.692;8.186;2023-04-19T00:56:03;99157.41;;;8.35;100.00
59531;BME280;45349;48.692;8.186;2023-04-19T00:58:32;99151.56;;;8.54;100.00
59531;BME280;45349;48.692;8.186;2023-04-19T01:00:58;99160.91;;;8.78;100.00
59531;BME280;45349;48.692;8.186;2023-04-19T01:03:25;99152.00;;;8.92;100.00
59531;BME280;45349;48.692;8.186;2023-04-19T01:05:54;99147.94;;;8.99;100.00
59531;BME280;45349;48.692;8.186;2023-04-19T01:08:21;99148.22;;;9.06;100.00
59531;BME280;45349;48.692;8.186;2023-04-19T01:10:47;99152.22;;;9.10;100.00
59531;BME280;45349;48.692;8.186;2023-04-19T01:13:14;99152.53;;;9.16;99.19
59531;BME280;45349;48.692;8.186;2023-04-19T01:15:42;99155.00;;;9.18;98.56
59531;BME280;45349;48.692;8.186;2023-04-19T01:18:09;99143.50;;;9.21;99.24
59531;BME280;45349;48.692;8.186;2023-04-19T01:20:35;99139.56;;;9.26;97.33
59531;BME280;45349;48.692;8.186;2023-04-19T01:23:03;99140.69;;;9.34;96.85
59531;BME280;45349;48.692;8.186;2023-04-19T01:25:36;99140.97;;;9.30;97.89
59531;BME280;45349;48.692;8.186;2023-04-19T01:28:03;99139.84;;;9.33;97.83
59531;BME280;45349;48.692;8.186;2023-04-19T01:30:35;99137.13;;;9.35;96.67
59531;BME280;45349;48.692;8.186;2023-04-19T01:33:02;99130.28;;;9.34;97.05
59531;BME280;45349;48.692;8.186;2023-04-19T01:35:34;99127.66;;;9.34;96.92
59531;BME280;45349;48.692;8.186;2023-04-19T01:38:01;99125.88;;;9.34;96.71
59531;BME280;45349;48.692;8.186;2023-04-19T01:40:36;99127.28;;;9.38;97.14
59531;BME280;45349;48.692;8.186;2023-04-19T01:43:03;99123.41;;;9.33;96.32
59531;BME280;45349;48.692;8.186;2023-04-19T01:45:35;99125.34;;;9.30;96.35
59531;BME280;45349;48.692;8.186;2023-04-19T01:48:02;99117.38;;;9.32;96.01
59531;BME280;45349;48.692;8.186;2023-04-19T01:50:35;99125.06;;;9.34;96.72
59531;BME280;45349;48.692;8.186;2023-04-19T01:53:03;99121.78;;;9.32;96.30
59531;BME280;45349;48.692;8.186;2023-04-19T01:55:36;99122.84;;;9.29;95.83
59531;BME280;45349;48.692;8.186;2023-04-19T01:58:03;99123.16;;;9.36;96.33
59531;BME280;45349;48.692;8.186;2023-04-19T02:00:33;99117.25;;;9.34;96.48
59531;BME280;45349;48.692;8.186;2023-04-19T02:03:03;99115.59;;;9.33;96.51
59531;BME280;45349;48.692;8.186;2023-04-19T02:05:37;99106.84;;;9.34;95.55
59531;BME280;45349;48.692;8.186;2023-04-19T02:08:04;99101.63;;;9.34;95.61
59531;BME280;45349;48.692;8.186;2023-04-19T02:10:36;99105.03;;;9.34;96.71
59531;BME280;45349;48.692;8.186;2023-04-19T02:13:02;99100.78;;;9.33;95.68
59531;BME280;45349;48.692;8.186;2023-04-19T02:15:54;99103.38;;;9.33;96.23
59531;BME280;45349;48.692;8.186;2023-04-19T02:18:20;99106.94;;;9.32;96.17
59531;BME280;45349;48.692;8.186;2023-04-19T02:20:48;99100.53;;;9.36;96.06
59531;BME280;45349;48.692;8.186;2023-04-19T02:23:15;99095.47;;;9.35;95.04
59531;BME280;45349;48.692;8.186;2023-04-19T02:25:43;99086.25;;;9.30;95.67
59531;BME280;45349;48.692;8.186;2023-04-19T02:28:13;99096.53;;;9.32;95.60
59531;BME280;45349;48.692;8.186;2023-04-19T02:30:39;99092.97;;;9.33;95.69
59531;BME280;45349;48.692;8.186;2023-04-19T02:33:06;99087.91;;;9.32;95.46
59531;BME280;45349;48.692;8.186;2023-04-19T02:35:35;99091.31;;;9.32;95.75
59531;BME280;45349;48.692;8.186;2023-04-19T02:38:02;99091.56;;;9.29;96.60
59531;BME280;45349;48.692;8.186;2023-04-19T02:40:34;99087.91;;;9.32;96.45
59531;BME280;45349;48.692;8.186;2023-04-19T02:43:03;99085.28;;;9.32;95.96
59531;BME280;45349;48.692;8.186;2023-04-19T02:45:34;99080.09;;;9.32;96.47
59531;BME280;45349;48.692;8.186;2023-04-19T02:48:01;99077.75;;;9.28;95.09
59531;BME280;45349;48.692;8.186;2023-04-19T02:50:53;99080.34;;;9.28;95.47
59531;BME280;45349;48.692;8.186;2023-04-19T02:53:20;99082.13;;;9.28;96.48
59531;BME280;45349;48.692;8.186;2023-04-19T02:55:48;99087.06;;;9.31;95.45
59531;BME280;45349;48.692;8.186;2023-04-19T02:58:18;99085.03;;;9.35;95.24
59531;BME280;45349;48.692;8.186;2023-04-19T03:01:00;99078.88;;;9.36;95.77
59531;BME280;45349;48.692;8.186;2023-04-19T03:03:27;99081.59;;;9.34;95.25
59531;BME280;45349;48.692;8.186;2023-04-19T03:05:53;99082.81;;;9.30;95.40
59531;BME280;45349;48.692;8.186;2023-04-19T03:08:20;99078.13;;;9.24;95.81
59531;BME280;45349;48.692;8.186;2023-04-19T03:10:47;99071.25;;;9.23;96.58
59531;BME280;45349;48.692;8.186;2023-04-19T03:13:13;99072.47;;;9.19;96.21
59531;BME280;45349;48.692;8.186;2023-04-19T03:15:42;99073.31;;;9.19;96.69
59531;BME280;45349;48.692;8.186;2023-04-19T03:18:09;99078.25;;;9.22;96.41
59531;BME280;45349;48.692;8.186;2023-04-19T03:20:37;99075.22;;;9.17;96.63
59531;BME280;45349;48.692;8.186;2023-04-19T03:23:04;99072.63;;;9.17;97.66
59531;BME280;45349;48.692;8.186;2023-04-19T03:25:35;99073.25;;;9.09;98.12
59531;BME280;45349;48.692;8.186;2023-04-19T03:28:24;99076.38;;;9.03;98.18
59531;BME280;45349;48.692;8.186;2023-04-19T03:31:12;99070.63;;;8.99;98.63
59531;BME280;45349;48.692;8.186;2023-04-19T03:33:39;99068.16;;;8.98;98.90
59531;BME280;45349;48.692;8.186;2023-04-19T03:36:08;99073.91;;;9.01;98.89
59531;BME280;45349;48.692;8.186;2023-04-19T03:38:35;99065.41;;;8.99;98.72
59531;BME280;45349;48.692;8.186;2023-04-19T03:41:16;99062.94;;;8.98;98.67
59531;BME280;45349;48.692;8.186;2023-04-19T03:43:44;99060.34;;;8.98;98.70
59531;BME280;45349;48.692;8.186;2023-04-19T03:46:12;99057.31;;;8.93;99.33
59531;BME280;45349;48.692;8.186;2023-04-19T03:48:39;99047.34;;;8.98;98.52
59531;BME280;45349;48.692;8.186;2023-04-19T03:51:05;99055.25;;;8.96;98.15
59531;BME280;45349;48.692;8.186;2023-04-19T03:53:33;99051.69;;;8.97;98.16
59531;BME280;45349;48.692;8.186;2023-04-19T03:55:59;99055.66;;;8.92;98.21
59531;BME280;45349;48.692;8.186;2023-04-19T03:58:27;99057.69;;;8.88;98.29
59531;BME280;45349;48.692;8.186;2023-04-19T04:01:01;99051.22;;;8.82;99.96
59531;BME280;45349;48.692;8.186;2023-04-19T04:03:29;99043.66;;;8.79;100.00
59531;BME280;45349;48.692;8.186;2023-04-19T04:05:56;99044.75;;;8.77;100.00
59531;BME280;45349;48.692;8.186;2023-04-19T04:08:22;99047.59;;;8.74;100.00
59531;BME280;45349;48.692;8.186;2023-04-19T04:10:49;99042.97;;;8.77;100.00
59531;BME280;45349;48.692;8.186;2023-04-19T04:13:15;99049.50;;;8.71;100.00
59531;BME280;45349;48.692;8.186;2023-04-19T04:15:49;99062.59;;;8.81;100.00
59531;BME280;45349;48.692;8.186;2023-04-19T04:18:16;99051.22;;;8.82;99.68
59531;BME280;45349;48.692;8.186;2023-04-19T04:20:44;99051.91;;;8.84;99.20
59531;BME280;45349;48.692;8.186;2023-04-19T04:23:11;99047.53;;;8.85;99.83
59531;BME280;45349;48.692;8.186;2023-04-19T04:25:43;99046.03;;;8.82;99.52
59531;BME280;45349;48.692;8.186;2023-04-19T04:28:12;99058.34;;;8.80;100.00
59531;BME280;45349;48.692;8.186;2023-04-19T04:30:40;99050.09;;;8.75;100.00
59531;BME280;45349;48.692;8.186;2023-04-19T04:33:08;99054.44;;;8.75;100.00
59531;BME280;45349;48.692;8.186;2023-04-19T04:35:38;99064.59;;;8.78;99.97
59531;BME280;45349;48.692;8.186;2023-04-19T04:38:12;99066.16;;;8.80;99.97
59531;BME280;45349;48.692;8.186;2023-04-19T04:40:39;99061.75;;;8.81;100.00
59531;BME280;45349;48.692;8.186;2023-04-19T04:43:07;99053.94;;;8.81;100.00
59531;BME280;45349;48.692;8.186;2023-04-19T04:45:35;99063.81;;;8.77;100.00
59531;BME280;45349;48.692;8.186;2023-04-19T04:48:03;99060.34;;;8.77;100.00
59531;BME280;45349;48.692;8.186;2023-04-19T04:50:35;99068.06;;;8.78;100.00
59531;BME280;45349;48.692;8.186;2023-04-19T04:53:03;99058.44;;;8.79;100.00
59531;BME280;45349;48.692;8.186;2023-04-19T04:55:37;99062.16;;;8.76;100.00
59531;BME280;45349;48.692;8.186;2023-04-19T04:58:03;99060.94;;;8.80;100.00
59531;BME280;45349;48.692;8.186;2023-04-19T05:00:48;99071.34;;;8.80;100.00
59531;BME280;45349;48.692;8.186;2023-04-19T05:03:15;99068.50;;;8.83;100.00
59531;BME280;45349;48.692;8.186;2023-04-19T05:05:47;99059.59;;;8.86;100.00
59531;BME280;45349;48.692;8.186;2023-04-19T05:08:13;99062.63;;;8.91;100.00
59531;BME280;45349;48.692;8.186;2023-04-19T05:10:41;99061.16;;;8.98;100.00
59531;BME280;45349;48.692;8.186;2023-04-19T05:13:08;99061.59;;;9.04;100.00
59531;BME280;45349;48.692;8.186;2023-04-19T05:15:35;99064.63;;;9.09;100.00
59531;BME280;45349;48.692;8.186;2023-04-19T05:18:02;99066.28;;;9.10;100.00
59531;BME280;45349;48.692;8.186;2023-04-19T05:20:36;99061.53;;;9.25;99.88
59531;BME280;45349;48.692;8.186;2023-04-19T05:23:09;99065.53;;;9.29;98.11
59531;BME280;45349;48.692;8.186;2023-04-19T05:25:36;99062.72;;;9.42;97.73
59531;BME280;45349;48.692;8.186;2023-04-19T05:28:05;99067.22;;;9.40;97.25
59531;BME280;45349;48.692;8.186;2023-04-19T05:30:51;99071.06;;;9.45;98.08
59531;BME280;45349;48.692;8.186;2023-04-19T05:33:21;99068.47;;;9.55;96.35
59531;BME280;45349;48.692;8.186;2023-04-19T05:35:49;99066.19;;;9.62;95.77
59531;BME280;45349;48.692;8.186;2023-04-19T05:38:16;99073.31;;;9.70;95.38
59531;BME280;45349;48.692;8.186;2023-04-19T05:40:43;99068.41;;;9.86;95.88
59531;BME280;45349;48.692;8.186;2023-04-19T05:43:13;99063.06;;;9.88;95.29
59531;BME280;45349;48.692;8.186;2023-04-19T05:45:42;99069.25;;;9.87;94.38
59531;BME280;45349;48.692;8.186;2023-04-19T05:48:08;99069.66;;;10.02;94.38
59531;BME280;45349;48.692;8.186;2023-04-19T05:51:08;99068.56;;;9.85;93.06
59531;BME280;45349;48.692;8.186;2023-04-19T05:53:59;99070.94;;;9.47;94.55
59531;BME280;45349;48.692;8.186;2023-04-19T05:56:25;99072.19;;;9.63;95.36
59531;BME280;45349;48.692;8.186;2023-04-19T05:58:53;99072.50;;;9.69;93.91
59531;BME280;45349;48.692;8.186;2023-04-19T06:01:20;99060.19;;;9.91;95.05
59531;BME280;45349;48.692;8.186;2023-04-19T06:03:47;99070.63;;;9.91;93.00
59531;BME280;45349;48.692;8.186;2023-04-19T06:06:17;99066.78;;;9.95;92.73
59531;BME280;45349;48.692;8.186;2023-04-19T06:08:43;99070.50;;;10.02;92.17
59531;BME280;45349;48.692;8.186;2023-04-19T06:11:10;99064.72;;;10.18;91.37
59531;BME280;45349;48.692;8.186;2023-04-19T06:13:37;99080.13;;;10.22;92.33
59531;BME280;45349;48.692;8.186;2023-04-19T06:16:06;99070.63;;;10.01;91.63
59531;BME280;45349;48.692;8.186;2023-04-19T06:18:33;99082.84;;;10.20;91.31
59531;BME280;45349;48.692;8.186;2023-04-19T06:20:59;99085.75;;;10.27;89.42
59531;BME280;45349;48.692;8.186;2023-04-19T06:23:26;99085.47;;;10.40;89.31
59531;BME280;45349;48.692;8.186;2023-04-19T06:25:52;99087.81;;;10.53;88.12
59531;BME280;45349;48.692;8.186;2023-04-19T06:28:19;99084.75;;;10.38;87.75
59531;BME280;45349;48.692;8.186;2023-04-19T06:30:45;99075.88;;;10.50;87.79
59531;BME280;45349;48.692;8.186;2023-04-19T06:33:14;99077.78;;;10.38;87.88
59531;BME280;45349;48.692;8.186;2023-04-19T06:35:41;99082.84;;;10.59;86.79
59531;BME280;45349;48.692;8.186;2023-04-19T06:38:07;99082.44;;;10.54;87.90
59531;BME280;45349;48.692;8.186;2023-04-19T06:40:35;99084.34;;;10.62;87.70
59531;BME280;45349;48.692;8.186;2023-04-19T06:43:01;99079.25;;;10.70;87.09
59531;BME280;45349;48.692;8.186;2023-04-19T06:45:32;99079.94;;;10.72;86.87
59531;BME280;45349;48.692;8.186;2023-04-19T06:47:58;99084.63;;;10.69;87.04
59531;BME280;45349;48.692;8.186;2023-04-19T06:50:26;99085.72;;;10.66;87.63
59531;BME280;45349;48.692;8.186;2023-04-19T06:52:53;99081.34;;;10.67;87.89
59531;BME280;45349;48.692;8.186;2023-04-19T06:55:19;99075.25;;;10.86;86.34
59531;BME280;45349;48.692;8.186;2023-04-19T06:57:46;99083.13;;;11.14;85.60
59531;BME280;45349;48.692;8.186;2023-04-19T07:00:13;99076.63;;;11.56;84.13
59531;BME280;45349;48.692;8.186;2023-04-19T07:02:40;99085.53;;;11.81;81.66
59531;BME280;45349;48.692;8.186;2023-04-19T07:05:07;99080.09;;;11.74;81.33
59531;BME280;45349;48.692;8.186;2023-04-19T07:07:35;99081.81;;;11.65;81.17
59531;BME280;45349;48.692;8.186;2023-04-19T07:10:03;99088.59;;;12.04;79.92
59531;BME280;45349;48.692;8.186;2023-04-19T07:12:30;99083.75;;;12.28;80.48
59531;BME280;45349;48.692;8.186;2023-04-19T07:14:56;99082.59;;;12.48;78.00
59531;BME280;45349;48.692;8.186;2023-04-19T07:17:23;99084.72;;;12.97;76.24
59531;BME280;45349;48.692;8.186;2023-04-19T07:19:50;99081.63;;;12.31;77.14
59531;BME280;45349;48.692;8.186;2023-04-19T07:22:16;99079.25;;;12.38;77.28
59531;BME280;45349;48.692;8.186;2023-04-19T07:24:44;99081.03;;;12.37;77.12
59531;BME280;45349;48.692;8.186;2023-04-19T07:27:11;99081.94;;;12.46;76.39
59531;BME280;45349;48.692;8.186;2023-04-19T07:29:38;99077.88;;;11.98;78.33
59531;BME280;45349;48.692;8.186;2023-04-19T07:32:05;99079.09;;;12.39;77.85
59531;BME280;45349;48.692;8.186;2023-04-19T07:34:32;99082.66;;;12.38;75.89
59531;BME280;45349;48.692;8.186;2023-04-19T07:36:58;99081.09;;;12.64;75.17
59531;BME280;45349;48.692;8.186;2023-04-19T07:39:27;99075.06;;;12.27;75.87
59531;BME280;45349;48.692;8.186;2023-04-19T07:41:56;99075.13;;;12.17;76.34
59531;BME280;45349;48.692;8.186;2023-04-19T07:44:23;99078.56;;;12.00;77.03
59531;BME280;45349;48.692;8.186;2023-04-19T07:46:49;99081.94;;;12.46;76.66
59531;BME280;45349;48.692;8.186;2023-04-19T07:49:17;99082.59;;;12.30;74.02
59531;BME280;45349;48.692;8.186;2023-04-19T07:51:43;99076.41;;;12.76;73.33
59531;BME280;45349;48.692;8.186;2023-04-19T07:54:10;99080.91;;;12.92;72.96
59531;BME280;45349;48.692;8.186;2023-04-19T07:56:36;99081.69;;;13.10;71.62
59531;BME280;45349;48.692;8.186;2023-04-19T07:59:04;99079.22;;;12.82;71.36
59531;BME280;45349;48.692;8.186;2023-04-19T08:01:31;99080.72;;;12.40;72.30
59531;BME280;45349;48.692;8.186;2023-04-19T08:03:57;99078.09;;;12.59;73.08
59531;BME280;45349;48.692;8.186;2023-04-19T08:06:24;99081.94;;;12.28;73.63
59531;BME280;45349;48.692;8.186;2023-04-19T08:08:51;99077.47;;;11.56;75.19
59531;BME280;45349;48.692;8.186;2023-04-19T08:11:17;99075.34;;;11.88;75.09
59531;BME280;45349;48.692;8.186;2023-04-19T08:13:44;99072.50;;;11.99;75.52
59531;BME280;45349;48.692;8.186;2023-04-19T08:16:12;99075.50;;;12.22;75.00
59531;BME280;45349;48.692;8.186;2023-04-19T08:18:38;99069.63;;;12.65;73.57
59531;BME280;45349;48.692;8.186;2023-04-19T08:21:05;99075.06;;;12.98;72.57
59531;BME280;45349;48.692;8.186;2023-04-19T08:23:31;99078.25;;;13.10;69.60
59531;BME280;45349;48.692;8.186;2023-04-19T08:25:58;99070.44;;;12.65;71.54
59531;BME280;45349;48.692;8.186;2023-04-19T08:28:25;99072.13;;;13.01;71.18
59531;BME280;45349;48.692;8.186;2023-04-19T08:30:54;99067.19;;;13.24;68.66
59531;BME280;45349;48.692;8.186;2023-04-19T08:33:22;99066.22;;;13.68;68.15
59531;BME280;45349;48.692;8.186;2023-04-19T08:35:48;99065.78;;;14.23;66.66
59531;BME280;45349;48.692;8.186;2023-04-19T08:38:15;99064.97;;;14.72;65.66
59531;BME280;45349;48.692;8.186;2023-04-19T08:40:45;99067.09;;;14.76;60.59
59531;BME280;45349;48.692;8.186;2023-04-19T08:43:12;99062.50;;;14.70;59.49
59531;BME280;45349;48.692;8.186;2023-04-19T08:45:39;99064.00;;;14.73;60.10
59531;BME280;45349;48.692;8.186;2023-04-19T08:48:07;99069.22;;;14.48;60.91
59531;BME280;45349;48.692;8.186;2023-04-19T08:50:37;99068.41;;;14.39;60.90
59531;BME280;45349;48.692;8.186;2023-04-19T08:53:06;99068.50;;;13.63;63.41
59531;BME280;45349;48.692;8.186;2023-04-19T08:55:36;99072.72;;;13.21;66.98
59531;BME280;45349;48.692;8.186;2023-04-19T08:58:03;99075.41;;;13.03;67.04
59531;BME280;45349;48.692;8.186;2023-04-19T09:00:37;99068.44;;;13.47;65.91
59531;BME280;45349;48.692;8.186;2023-04-19T09:03:06;99064.03;;;13.21;66.29
59531;BME280;45349;48.692;8.186;2023-04-19T09:05:37;99070.28;;;13.28;66.47
59531;BME280;45349;48.692;8.186;2023-04-19T09:08:22;99063.28;;;13.88;64.71
59531;BME280;45349;48.692;8.186;2023-04-19T09:10:55;99074.19;;;13.58;64.06
59531;BME280;45349;48.692;8.186;2023-04-19T09:13:22;99068.06;;;13.07;65.95
59531;BME280;45349;48.692;8.186;2023-04-19T09:15:48;99065.41;;;12.98;67.78
59531;BME280;45349;48.692;8.186;2023-04-19T09:18:15;99057.00;;;13.29;66.17
59531;BME280;45349;48.692;8.186;2023-04-19T09:20:45;99064.63;;;13.06;67.49
59531;BME280;45349;48.692;8.186;2023-04-19T09:23:13;99059.81;;;13.71;65.32
59531;BME280;45349;48.692;8.186;2023-04-19T09:25:51;99055.06;;;13.83;66.57
59531;BME280;45349;48.692;8.186;2023-04-19T09:28:18;99048.38;;;13.97;63.62
59531;BME280;45349;48.692;8.186;2023-04-19T09:30:45;99047.47;;;13.12;65.85
59531;BME280;45349;48.692;8.186;2023-04-19T09:33:12;99051.88;;;13.11;67.26
59531;BME280;45349;48.692;8.186;2023-04-19T09:35:39;99051.78;;;13.81;65.93
59531;BME280;45349;48.692;8.186;2023-04-19T09:38:08;99049.81;;;13.83;64.43
59531;BME280;45349;48.692;8.186;2023-04-19T09:40:36;99042.72;;;13.58;65.66
59531;BME280;45349;48.692;8.186;2023-04-19T09:43:03;99047.41;;;14.23;64.00
59531;BME280;45349;48.692;8.186;2023-04-19T09:45:39;99040.03;;;14.18;62.66
59531;BME280;45349;48.692;8.186;2023-04-19T09:48:07;99034.94;;;14.25;63.34
59531;BME280;45349;48.692;8.186;2023-04-19T09:50:37;99026.88;;;14.01;64.57
59531;BME280;45349;48.692;8.186;2023-04-19T09:53:17;99030.81;;;13.89;63.79
59531;BME280;45349;48.692;8.186;2023-04-19T09:55:45;99030.16;;;13.70;63.56
59531;BME280;45349;48.692;8.186;2023-04-19T09:58:12;99025.06;;;13.77;62.44
59531;BME280;45349;48.692;8.186;2023-04-19T10:00:40;99034.03;;;13.50;64.67
59531;BME280;45349;48.692;8.186;2023-04-19T10:03:08;99024.25;;;14.10;61.46
59531;BME280;45349;48.692;8.186;2023-04-19T10:05:37;99021.63;;;13.77;61.46
59531;BME280;45349;48.692;8.186;2023-04-19T10:08:06;99021.47;;;13.86;60.42
59531;BME280;45349;48.692;8.186;2023-04-19T10:10:37;99015.06;;;14.06;59.90
59531;BME280;45349;48.692;8.186;2023-04-19T10:13:06;99012.75;;;13.69;60.16
59531;BME280;45349;48.692;8.186;2023-04-19T10:15:35;99013.94;;;14.16;59.49
59531;BME280;45349;48.692;8.186;2023-04-19T10:18:03;99019.00;;;14.26;60.12
59531;BME280;45349;48.692;8.186;2023-04-19T10:20:40;99011.59;;;14.38;59.44
59531;BME280;45349;48.692;8.186;2023-04-19T10:23:07;99004.56;;;13.89;61.84
59531;BME280;45349;48.692;8.186;2023-04-19T10:25:37;99002.41;;;13.60;60.78
59531;BME280;45349;48.692;8.186;2023-04-19T10:28:03;98998.66;;;13.79;60.21
59531;BME280;45349;48.692;8.186;2023-04-19T10:30:35;98994.72;;;13.91;60.98
59531;BME280;45349;48.692;8.186;2023-04-19T10:33:01;99002.94;;;13.71;60.62
59531;BME280;45349;48.692;8.186;2023-04-19T10:35:36;98994.91;;;13.81;60.31
59531;BME280;45349;48.692;8.186;2023-04-19T10:38:04;98986.19;;;14.06;58.68
59531;BME280;45349;48.692;8.186;2023-04-19T10:41:00;98980.28;;;13.95;57.42
59531;BME280;45349;48.692;8.186;2023-04-19T10:43:30;98979.75;;;14.41;58.83
59531;BME280;45349;48.692;8.186;2023-04-19T10:45:59;98979.06;;;14.56;57.69
59531;BME280;45349;48.692;8.186;2023-04-19T10:48:34;98977.16;;;14.33;56.87
59531;BME280;45349;48.692;8.186;2023-04-19T10:51:04;98978.44;;;14.45;56.99
59531;BME280;45349;48.692;8.186;2023-04-19T10:53:45;98967.09;;;14.70;56.91
59531;BME280;45349;48.692;8.186;2023-04-19T10:56:13;98957.44;;;15.02;54.68
59531;BME280;45349;48.692;8.186;2023-04-19T10:59:15;98949.13;;;15.45;54.35
59531;BME280;45349;48.692;8.186;2023-04-19T11:01:49;98960.28;;;15.78;52.61
59531;BME280;45349;48.692;8.186;2023-04-19T11:04:18;98955.16;;;16.00;51.13
59531;BME280;45349;48.692;8.186;2023-04-19T11:07:04;98953.16;;;15.01;56.74
59531;BME280;45349;48.692;8.186;2023-04-19T11:09:35;98952.97;;;15.11;56.35
59531;BME280;45349;48.692;8.186;2023-04-19T11:12:06;98945.31;;;15.56;56.31
59531;BME280;45349;48.692;8.186;2023-04-19T11:14:34;98944.47;;;15.55;54.21
59531;BME280;45349;48.692;8.186;2023-04-19T11:17:03;98939.84;;;15.57;54.87
59531;BME280;45349;48.692;8.186;2023-04-19T11:19:30;98942.94;;;15.38;55.27
59531;BME280;45349;48.692;8.186;2023-04-19T11:21:57;98933.47;;;14.97;57.84
59531;BME280;45349;48.692;8.186;2023-04-19T11:24:24;98935.00;;;15.46;56.10
59531;BME280;45349;48.692;8.186;2023-04-19T11:26:51;98932.50;;;15.53;55.98
59531;BME280;45349;48.692;8.186;2023-04-19T11:29:19;98930.31;;;15.33;55.67
59531;BME280;45349;48.692;8.186;2023-04-19T11:31:47;98935.16;;;15.21;56.87
59531;BME280;45349;48.692;8.186;2023-04-19T11:34:13;98928.28;;;15.20;55.10
59531;BME280;45349;48.692;8.186;2023-04-19T11:36:47;98930.97;;;14.72;55.44
59531;BME280;45349;48.692;8.186;2023-04-19T11:39:14;98931.59;;;14.01;56.86
59531;BME280;45349;48.692;8.186;2023-04-19T11:41:41;98925.22;;;14.60;56.37
59531;BME280;45349;48.692;8.186;2023-04-19T11:44:17;98913.69;;;14.13;57.04
59531;BME280;45349;48.692;8.186;2023-04-19T11:47:01;98912.72;;;14.70;54.66
59531;BME280;45349;48.692;8.186;2023-04-19T11:49:30;98911.97;;;14.93;56.15
59531;BME280;45349;48.692;8.186;2023-04-19T11:51:58;98910.25;;;14.77;55.23
59531;BME280;45349;48.692;8.186;2023-04-19T11:54:25;98905.34;;;14.74;55.40
59531;BME280;45349;48.692;8.186;2023-04-19T11:56:59;98895.31;;;14.61;55.79
59531;BME280;45349;48.692;8.186;2023-04-19T11:59:27;98900.97;;;14.89;55.64
59531;BME280;45349;48.692;8.186;2023-04-19T12:01:53;98895.19;;;14.71;56.79
59531;BME280;45349;48.692;8.186;2023-04-19T12:04:21;98897.63;;;15.04;54.49
59531;BME280;45349;48.692;8.186;2023-04-19T12:06:55;98903.66;;;15.13;53.67
59531;BME280;45349;48.692;8.186;2023-04-19T12:09:23;98886.84;;;14.90;55.04
59531;BME280;45349;48.692;8.186;2023-04-19T12:11:49;98889.41;;;15.92;55.85
59531;BME280;45349;48.692;8.186;2023-04-19T12:14:18;98891.25;;;16.06;54.22
59531;BME280;45349;48.692;8.186;2023-04-19T12:17:08;98892.50;;;15.11;53.77
59531;BME280;45349;48.692;8.186;2023-04-19T12:19:42;98889.03;;;14.79;54.76
59531;BME280;45349;48.692;8.186;2023-04-19T12:22:11;98885.78;;;15.55;53.22
59531;BME280;45349;48.692;8.186;2023-04-19T12:24:39;98893.34;;;14.71;56.27
59531;BME280;45349;48.692;8.186;2023-04-19T12:27:06;98892.47;;;14.31;57.60
59531;BME280;45349;48.692;8.186;2023-04-19T12:29:37;98887.19;;;14.87;56.36
59531;BME280;45349;48.692;8.186;2023-04-19T12:32:04;98905.03;;;14.60;55.99
59531;BME280;45349;48.692;8.186;2023-04-19T12:34:31;98879.59;;;14.93;55.77
59531;BME280;45349;48.692;8.186;2023-04-19T12:36:59;98890.97;;;15.16;56.29
59531;BME280;45349;48.692;8.186;2023-04-19T12:39:27;98893.53;;;15.01;56.22
59531;BME280;45349;48.692;8.186;2023-04-19T12:41:54;98899.81;;;14.52;56.82
59531;BME280;45349;48.692;8.186;2023-04-19T12:44:21;98900.25;;;13.91;59.42
59531;BME280;45349;48.692;8.186;2023-04-19T12:46:48;98897.66;;;14.47;57.95
59531;BME280;45349;48.692;8.186;2023-04-19T12:49:16;98902.22;;;13.81;60.54
59531;BME280;45349;48.692;8.186;2023-04-19T12:51:43;98895.66;;;14.01;60.44
59531;BME280;45349;48.692;8.186;2023-04-19T12:54:13;98898.31;;;13.77;61.27
59531;BME280;45349;48.692;8.186;2023-04-19T12:56:40;98893.22;;;13.50;62.58
59531;BME280;45349;48.692;8.186;2023-04-19T12:59:06;98895.03;;;13.41;62.60
59531;BME280;45349;48.692;8.186;2023-04-19T13:01:33;98901.38;;;12.79;65.49
59531;BME280;45349;48.692;8.186;2023-04-19T13:04:00;98896.84;;;12.47;68.08
59531;BME280;45349;48.692;8.186;2023-04-19T13:06:26;98898.09;;;12.34;67.99
59531;BME280;45349;48.692;8.186;2023-04-19T13:08:53;98908.56;;;12.34;68.20
59531;BME280;45349;48.692;8.186;2023-04-19T13:11:21;98892.44;;;12.21;69.25
59531;BME280;45349;48.692;8.186;2023-04-19T13:13:51;98900.56;;;12.36;68.58